Time;durP1;ratioP1;P1;durP2;ratioP2;P2;SDS_P1;SDS_P2;PMS_P1;PMS_P2;Temp;Humidity;BMP_temperature;BMP_pressure;BME280_temperature;BME280_humidity;BME280_pressure;Samples;Min_cycle;Max_cycle;Signal;HPM_P1;HPM_P2
2022/04/03 00:00:35;;;;;;;0.50;0.50;;;3.00;99.90;;;;;;5062504;28;20333;-85
2022/04/03 00:03:03;;;;;;;3.03;1.07;;;3.10;99.90;;;;;;5078348;28;20457;-84
2022/04/03 00:05:29;;;;;;;0.60;0.60;;;3.10;99.90;;;;;;5045116;28;20693;-85
2022/04/03 00:07:55;;;;;;;1.00;1.00;;;3.10;99.90;;;;;;5062695;28;20213;-83
2022/04/03 00:10:22;;;;;;;0.30;0.30;;;3.20;99.90;;;;;;5077944;28;20198;-83
2022/04/03 00:12:49;;;;;;;0.33;0.33;;;3.10;99.90;;;;;;5045610;28;20196;-84
2022/04/03 00:15:15;;;;;;;0.30;0.30;;;3.10;99.90;;;;;;5061366;28;20666;-84
2022/04/03 00:17:42;;;;;;;0.43;0.43;;;3.20;99.90;;;;;;5062617;28;20281;-83
2022/04/03 00:20:08;;;;;;;0.37;0.37;;;3.30;99.90;;;;;;5078155;28;20249;-84
2022/04/03 00:22:34;;;;;;;0.30;0.30;;;3.30;99.90;;;;;;5078694;28;20853;-84
2022/04/03 00:25:00;;;;;;;0.60;0.60;;;3.30;99.90;;;;;;5061395;28;20195;-81
2022/04/03 00:27:26;;;;;;;0.23;0.23;;;3.40;99.90;;;;;;5063282;28;20282;-85
2022/04/03 00:29:52;;;;;;;0.40;0.40;;;3.40;99.90;;;;;;5060839;28;20665;-85
2022/04/03 00:32:19;;;;;;;0.40;0.40;;;3.50;99.90;;;;;;5044746;28;20232;-84
2022/04/03 00:34:46;;;;;;;0.37;0.37;;;3.60;99.90;;;;;;5044262;28;20225;-85
2022/04/03 00:37:11;;;;;;;0.63;0.63;;;3.70;99.90;;;;;;5045228;28;20624;-86
2022/04/03 00:39:37;;;;;;;1.83;0.90;;;3.70;99.90;;;;;;5060986;28;20693;-83
2022/04/03 00:42:06;;;;;;;0.40;0.40;;;3.70;99.90;;;;;;5077613;28;20262;-84
2022/04/03 00:44:33;;;;;;;0.40;0.40;;;3.70;99.90;;;;;;5060728;28;20213;-83
2022/04/03 00:46:59;;;;;;;0.67;0.67;;;3.80;99.90;;;;;;5044048;28;20228;-83
2022/04/03 00:49:27;;;;;;;3.30;0.90;;;3.80;99.90;;;;;;5044021;28;20737;-84
2022/04/03 00:51:52;;;;;;;0.50;0.37;;;3.80;99.90;;;;;;5078195;28;20201;-85
2022/04/03 00:54:18;;;;;;;0.30;0.30;;;3.90;99.90;;;;;;5060554;28;21052;-83
2022/04/03 00:56:44;;;;;;;0.30;0.30;;;3.80;99.90;;;;;;5062097;28;20228;-85
2022/04/03 00:59:12;;;;;;;0.77;0.60;;;3.80;99.90;;;;;;5077241;28;20233;-84
2022/04/03 01:01:42;;;;;;;1.07;0.47;;;3.70;99.90;;;;;;5061376;28;20244;-83
2022/04/03 01:04:08;;;;;;;0.50;0.50;;;3.60;99.90;;;;;;5077977;28;20305;-84
2022/04/03 01:06:35;;;;;;;0.40;0.40;;;3.60;99.90;;;;;;5042333;28;20213;-84
2022/04/03 01:09:03;;;;;;;0.37;0.37;;;3.40;99.90;;;;;;5042677;28;20221;-83
2022/04/03 01:11:30;;;;;;;0.50;0.50;;;3.40;99.90;;;;;;5077101;28;20323;-84
2022/04/03 01:13:56;;;;;;;0.60;0.60;;;3.40;99.90;;;;;;5043724;28;20225;-82
2022/04/03 01:16:22;;;;;;;0.50;0.50;;;3.40;99.90;;;;;;5061127;28;20201;-85
2022/04/03 01:18:47;;;;;;;0.43;0.43;;;3.40;99.90;;;;;;5077680;28;20194;-85
2022/04/03 01:21:14;;;;;;;0.33;0.33;;;3.40;99.90;;;;;;5076753;28;20308;-84
2022/04/03 01:23:40;;;;;;;0.50;0.50;;;3.40;99.90;;;;;;5043620;28;20325;-84
2022/04/03 01:26:06;;;;;;;0.40;0.40;;;3.40;99.90;;;;;;5076327;28;20266;-85
2022/04/03 01:28:31;;;;;;;0.40;0.40;;;3.50;99.90;;;;;;5043696;28;20293;-86
2022/04/03 01:30:57;;;;;;;0.50;0.50;;;3.50;99.90;;;;;;5060321;28;20288;-85
2022/04/03 01:33:23;;;;;;;0.70;0.70;;;3.50;99.90;;;;;;5060127;28;20221;-84
2022/04/03 01:35:49;;;;;;;0.93;0.93;;;3.50;99.90;;;;;;5059648;28;20217;-85
2022/04/03 01:38:15;;;;;;;0.50;0.50;;;3.50;99.90;;;;;;5043125;28;20720;-84
2022/04/03 01:40:42;;;;;;;1.80;1.70;;;3.60;99.90;;;;;;5059706;28;20312;-86
2022/04/03 01:43:10;;;;;;;0.30;0.30;;;3.60;99.90;;;;;;5061680;28;20216;-85
2022/04/03 01:45:40;;;;;;;0.77;0.67;;;3.60;99.90;;;;;;5042617;28;20209;-85
2022/04/03 01:48:07;;;;;;;1.57;0.80;;;3.60;99.90;;;;;;5076513;28;20588;-85
2022/04/03 01:50:33;;;;;;;0.60;0.60;;;3.60;99.90;;;;;;5060048;28;20601;-82
2022/04/03 01:52:59;;;;;;;0.90;0.80;;;3.60;99.90;;;;;;5059598;28;20220;-85
2022/04/03 01:55:25;;;;;;;0.80;0.80;;;3.60;99.90;;;;;;5076511;28;20935;-85
2022/04/03 01:57:52;;;;;;;0.30;0.30;;;3.50;99.90;;;;;;5061499;28;20708;-84
2022/04/03 02:00:19;;;;;;;1.03;1.03;;;3.50;99.90;;;;;;5042550;28;20241;-85
2022/04/03 02:02:45;;;;;;;0.90;0.90;;;3.50;99.90;;;;;;5075671;28;20325;-85
2022/04/03 02:05:11;;;;;;;0.30;0.30;;;3.30;99.90;;;;;;5059343;28;20221;-83
2022/04/03 02:07:38;;;;;;;0.50;0.50;;;3.30;99.90;;;;;;5041836;28;20765;-85
2022/04/03 02:10:12;;;;;;;0.27;0.27;;;3.20;99.90;;;;;;5061016;28;20386;-84
2022/04/03 02:12:41;;;;;;;0.40;0.40;;;3.30;99.90;;;;;;5042668;28;20228;-86
2022/04/03 02:15:08;;;;;;;0.40;0.40;;;3.20;99.90;;;;;;5060546;28;20221;-85
2022/04/03 02:17:34;;;;;;;0.50;0.50;;;3.10;99.90;;;;;;5050279;28;20307;-84
2022/04/03 02:20:00;;;;;;;0.43;0.43;;;3.10;99.90;;;;;;5076146;28;20229;-84
2022/04/03 02:22:26;;;;;;;0.23;0.23;;;3.00;99.90;;;;;;5075870;28;20220;-85
2022/04/03 02:24:51;;;;;;;0.23;0.23;;;3.00;99.90;;;;;;5061074;28;20197;-83
2022/04/03 02:27:17;;;;;;;0.40;0.40;;;3.00;99.90;;;;;;5042399;28;20918;-82
2022/04/03 02:29:43;;;;;;;0.40;0.40;;;3.10;99.90;;;;;;5076283;28;20228;-84
2022/04/03 02:32:09;;;;;;;0.20;0.20;;;3.10;99.90;;;;;;5058696;28;20653;-85
2022/04/03 02:34:34;;;;;;;0.30;0.30;;;3.10;99.90;;;;;;5042354;28;20276;-85
2022/04/03 02:37:00;;;;;;;0.30;0.30;;;3.10;99.90;;;;;;5059364;28;20197;-85
2022/04/03 02:39:26;;;;;;;0.30;0.30;;;3.00;99.90;;;;;;5061094;28;20294;-86
2022/04/03 02:41:52;;;;;;;0.20;0.20;;;3.00;99.90;;;;;;5042210;28;20741;-86
2022/04/03 02:44:18;;;;;;;0.20;0.20;;;3.10;99.90;;;;;;5076181;28;20937;-84
2022/04/03 02:46:44;;;;;;;0.30;0.30;;;3.00;99.90;;;;;;5059111;28;20231;-84
2022/04/03 02:49:10;;;;;;;0.30;0.30;;;2.90;99.90;;;;;;5042543;28;21026;-83
2022/04/03 02:51:36;;;;;;;0.70;0.70;;;2.90;99.90;;;;;;5075975;28;20225;-85
2022/04/03 02:54:02;;;;;;;0.60;0.60;;;2.90;99.90;;;;;;5074783;28;20689;-85
2022/04/03 02:56:28;;;;;;;0.30;0.30;;;2.90;99.90;;;;;;5058916;28;20228;-84
2022/04/03 02:58:54;;;;;;;2.57;0.60;;;3.00;99.90;;;;;;5058551;28;20248;-84
2022/04/03 03:01:20;;;;;;;0.70;0.70;;;3.10;99.90;;;;;;5058083;28;20197;-85
2022/04/03 03:03:46;;;;;;;0.40;0.40;;;3.20;99.90;;;;;;5076225;28;20185;-85
2022/04/03 03:06:11;;;;;;;0.30;0.30;;;3.30;99.90;;;;;;5060058;28;20577;-86
2022/04/03 03:08:37;;;;;;;0.30;0.30;;;3.30;99.90;;;;;;5058562;28;20225;-84
2022/04/03 03:11:04;;;;;;;0.67;0.67;;;3.20;99.90;;;;;;5059060;28;20292;-85
2022/04/03 03:13:29;;;;;;;0.30;0.30;;;3.20;99.90;;;;;;5059492;28;20209;-85
2022/04/03 03:15:56;;;;;;;0.30;0.30;;;3.20;99.90;;;;;;5076428;28;20185;-84
2022/04/03 03:18:21;;;;;;;0.30;0.30;;;3.30;99.90;;;;;;5058319;28;20229;-84
2022/04/03 03:20:47;;;;;;;0.50;0.50;;;3.30;99.90;;;;;;5042305;28;20229;-84
2022/04/03 03:23:13;;;;;;;0.30;0.30;;;3.30;99.90;;;;;;5041625;28;20232;-84
2022/04/03 03:25:39;;;;;;;0.40;0.40;;;3.30;99.90;;;;;;5058786;28;20424;-85
2022/04/03 03:28:05;;;;;;;0.40;0.40;;;3.20;99.90;;;;;;5059663;28;20196;-85
2022/04/03 03:30:30;;;;;;;0.30;0.30;;;3.20;99.90;;;;;;5078471;28;20213;-84
2022/04/03 03:32:56;;;;;;;0.30;0.30;;;3.10;99.90;;;;;;5044951;28;20579;-83
2022/04/03 03:35:22;;;;;;;0.30;0.30;;;3.10;99.90;;;;;;5045724;28;20221;-85
2022/04/03 03:37:48;;;;;;;0.30;0.30;;;3.10;99.90;;;;;;5063808;28;21150;-84
2022/04/03 03:40:14;;;;;;;1.90;1.27;;;3.00;99.90;;;;;;5063771;28;20193;-85
2022/04/03 03:42:43;;;;;;;0.40;0.40;;;3.00;99.90;;;;;;5062874;28;20224;-85
2022/04/03 03:45:14;;;;;;;0.40;0.40;;;3.00;99.90;;;;;;5045010;28;20268;-85
2022/04/03 03:47:42;;;;;;;0.30;0.30;;;3.00;99.90;;;;;;5045405;28;20229;-85
2022/04/03 03:50:08;;;;;;;0.73;0.73;;;3.00;99.90;;;;;;5060995;28;20221;-84
2022/04/03 03:52:34;;;;;;;0.30;0.30;;;3.10;99.90;;;;;;5063808;28;20197;-85
2022/04/03 03:54:59;;;;;;;0.70;0.70;;;3.00;99.90;;;;;;5045559;28;20216;-85
2022/04/03 03:57:25;;;;;;;0.30;0.30;;;3.10;99.90;;;;;;5044683;28;20217;-83
2022/04/03 03:59:52;;;;;;;0.20;0.20;;;3.00;99.90;;;;;;5078441;28;20328;-85
2022/04/03 04:02:18;;;;;;;0.30;0.30;;;2.90;99.90;;;;;;5061493;28;20738;-84
2022/04/03 04:04:44;;;;;;;0.37;0.37;;;2.80;99.90;;;;;;5061372;28;20236;-83
2022/04/03 04:07:10;;;;;;;0.40;0.40;;;2.80;99.90;;;;;;5045625;28;20205;-85
2022/04/03 04:09:37;;;;;;;1.60;0.80;;;2.70;99.90;;;;;;5062310;28;20612;-85
2022/04/03 04:12:04;;;;;;;0.83;0.60;;;2.70;99.90;;;;;;5044552;28;20294;-85
2022/04/03 04:14:30;;;;;;;0.37;0.37;;;2.60;99.90;;;;;;5045033;28;20327;-85
2022/04/03 04:16:55;;;;;;;0.37;0.37;;;2.60;99.90;;;;;;5061757;28;20224;-84
2022/04/03 04:19:21;;;;;;;0.40;0.40;;;2.60;99.90;;;;;;5044745;28;20590;-83
2022/04/03 04:21:47;;;;;;;0.30;0.30;;;2.70;99.90;;;;;;5045518;28;20220;-83
2022/04/03 04:24:12;;;;;;;0.30;0.30;;;2.70;99.90;;;;;;5060990;28;20304;-82
2022/04/03 04:26:39;;;;;;;0.40;0.40;;;2.60;99.90;;;;;;5061509;28;20304;-85
2022/04/03 04:29:05;;;;;;;0.57;0.50;;;2.60;99.90;;;;;;5060539;28;20240;-85
2022/04/03 04:31:30;;;;;;;0.20;0.20;;;2.60;99.90;;;;;;5078496;28;20221;-84
2022/04/03 04:33:56;;;;;;;0.27;0.27;;;3.00;99.90;;;;;;5062882;28;20676;-83
2022/04/03 04:36:22;;;;;;;3.13;1.23;;;3.10;99.90;;;;;;5060545;28;20225;-83
2022/04/03 04:38:48;;;;;;;0.50;0.50;;;3.20;99.90;;;;;;5077643;28;20220;-84
2022/04/03 04:41:14;;;;;;;0.40;0.40;;;3.20;99.90;;;;;;5060469;28;21213;-85
2022/04/03 04:43:40;;;;;;;0.97;0.50;;;3.20;99.90;;;;;;5044583;28;20221;-84
2022/04/03 04:46:06;;;;;;;0.80;0.80;;;3.10;99.90;;;;;;5062722;28;20201;-83
2022/04/03 04:48:32;;;;;;;0.30;0.30;;;3.10;99.90;;;;;;5061030;28;20278;-83
2022/04/03 04:50:58;;;;;;;0.40;0.40;;;3.20;99.90;;;;;;5060798;28;20765;-84
2022/04/03 04:53:23;;;;;;;0.33;0.33;;;3.30;99.90;;;;;;5077174;28;20217;-84
2022/04/03 04:55:49;;;;;;;0.50;0.40;;;3.30;99.90;;;;;;5043914;28;20278;-83
2022/04/03 04:58:15;;;;;;;0.40;0.40;;;3.40;99.90;;;;;;5061017;28;20192;-83
2022/04/03 05:00:41;;;;;;;0.47;0.47;;;3.40;99.90;;;;;;5060187;28;20251;-84
2022/04/03 05:03:07;;;;;;;0.40;0.40;;;3.50;99.90;;;;;;5061017;28;20232;-86
2022/04/03 05:05:33;;;;;;;0.40;0.40;;;3.50;99.90;;;;;;5077030;28;20220;-85
2022/04/03 05:08:00;;;;;;;0.33;0.33;;;3.40;99.90;;;;;;5061289;28;20271;-82
2022/04/03 05:10:26;;;;;;;0.53;0.53;;;3.40;99.90;;;;;;5059857;28;20236;-84
2022/04/03 05:12:53;;;;;;;0.40;0.40;;;3.40;99.90;;;;;;5044389;28;20196;-85
2022/04/03 05:15:20;;;;;;;0.30;0.30;;;3.40;99.90;;;;;;5042942;28;20674;-83
2022/04/03 05:17:45;;;;;;;0.20;0.20;;;3.30;99.90;;;;;;5060838;28;20260;-85
2022/04/03 05:20:13;;;;;;;0.40;0.40;;;3.30;99.90;;;;;;5042954;28;20332;-85
2022/04/03 05:22:43;;;;;;;0.30;0.30;;;3.20;99.90;;;;;;5043332;28;20240;-83
2022/04/03 05:25:11;;;;;;;0.70;0.70;;;3.20;99.90;;;;;;5043349;28;20644;-82
2022/04/03 05:27:41;;;;;;;0.27;0.27;;;3.30;99.90;;;;;;5059851;28;20217;-84
2022/04/03 05:30:08;;;;;;;0.30;0.30;;;3.30;99.90;;;;;;5076320;28;20223;-82
2022/04/03 05:32:35;;;;;;;0.30;0.30;;;3.30;99.90;;;;;;5061057;28;20224;-85
2022/04/03 05:35:01;;;;;;;0.37;0.37;;;3.40;99.90;;;;;;5061178;28;20221;-82
2022/04/03 05:37:27;;;;;;;0.40;0.40;;;3.30;99.90;;;;;;5076603;28;21079;-85
2022/04/03 05:39:53;;;;;;;0.27;0.27;;;3.30;99.90;;;;;;5060686;28;20185;-84
2022/04/03 05:42:19;;;;;;;0.50;0.50;;;3.30;99.90;;;;;;5042164;28;20289;-85
2022/04/03 05:44:45;;;;;;;0.37;0.37;;;3.40;99.90;;;;;;5061105;28;20275;-85
2022/04/03 05:47:11;;;;;;;0.40;0.40;;;3.60;99.90;;;;;;5059060;28;20228;-82
2022/04/03 05:49:37;;;;;;;5.07;0.83;;;4.00;99.90;;;;;;5076457;28;20188;-82
2022/04/03 05:52:03;;;;;;;0.30;0.30;;;4.70;99.90;;;;;;5058984;28;20627;-83
2022/04/03 05:54:29;;;;;;;0.50;0.50;;;5.10;99.90;;;;;;5060864;28;20259;-82
2022/04/03 05:56:55;;;;;;;0.27;0.27;;;5.40;99.90;;;;;;5042862;28;20220;-84
2022/04/03 05:59:21;;;;;;;0.30;0.30;;;5.90;99.90;;;;;;5042318;28;21153;-85
2022/04/03 06:01:48;;;;;;;0.43;0.43;;;6.40;99.90;;;;;;5058994;28;20221;-83
2022/04/03 06:04:14;;;;;;;0.30;0.30;;;6.80;99.90;;;;;;5076579;28;20707;-84
2022/04/03 06:06:40;;;;;;;0.87;0.87;;;7.00;99.90;;;;;;5041929;28;20752;-85
2022/04/03 06:09:06;;;;;;;0.30;0.30;;;7.10;99.90;;;;;;5059940;28;20229;-84
2022/04/03 06:11:31;;;;;;;0.27;0.27;;;7.60;99.90;;;;;;5076005;28;20913;-86
2022/04/03 06:13:57;;;;;;;0.30;0.30;;;8.10;99.90;;;;;;5076023;28;20225;-82
2022/04/03 06:16:23;;;;;;;0.40;0.40;;;8.00;99.90;;;;;;5041773;28;20178;-82
2022/04/03 06:18:49;;;;;;;0.20;0.20;;;7.10;99.90;;;;;;5065038;28;20287;-83
2022/04/03 06:21:14;;;;;;;0.30;0.30;;;6.10;99.90;;;;;;5041876;28;20265;-83
2022/04/03 06:23:40;;;;;;;0.30;0.30;;;5.40;99.90;;;;;;5058631;28;20635;-81
2022/04/03 06:26:06;;;;;;;0.30;0.30;;;5.20;99.90;;;;;;5059239;28;20221;-83
2022/04/03 06:28:31;;;;;;;0.30;0.30;;;5.50;99.90;;;;;;5059339;28;20561;-81
2022/04/03 06:30:57;;;;;;;0.30;0.30;;;5.80;99.90;;;;;;5059487;28;20181;-84
2022/04/03 06:33:24;;;;;;;0.70;0.70;;;5.40;99.90;;;;;;5075264;28;20236;-84
2022/04/03 06:35:49;;;;;;;1.97;0.50;;;5.30;99.90;;;;;;5042759;28;20259;-83
2022/04/03 06:38:16;;;;;;;0.30;0.30;;;5.40;99.90;;;;;;5041231;28;20765;-83
2022/04/03 06:40:52;;;;;;;0.30;0.30;;;5.70;99.90;;;;;;5058815;28;20766;-82
2022/04/03 06:43:22;;;;;;;0.20;0.20;;;6.10;99.90;;;;;;5060298;28;20185;-82
2022/04/03 06:45:49;;;;;;;0.23;0.23;;;6.60;99.90;;;;;;5059639;28;20189;-83
2022/04/03 06:48:16;;;;;;;0.57;0.57;;;6.30;99.90;;;;;;5074848;28;20378;-83
2022/04/03 06:50:41;;;;;;;0.20;0.20;;;5.50;99.90;;;;;;5041997;28;20235;-83
2022/04/03 06:53:07;;;;;;;0.50;0.50;;;4.70;99.90;;;;;;5058144;28;20221;-82
2022/04/03 06:55:33;;;;;;;0.40;0.40;;;4.30;99.90;;;;;;5058781;28;20193;-83
2022/04/03 06:57:59;;;;;;;0.30;0.30;;;4.20;99.90;;;;;;5075583;28;20647;-83
2022/04/03 07:00:26;;;;;;;4.13;0.40;;;4.40;99.90;;;;;;5059740;28;20237;-86
2022/04/03 07:02:51;;;;;;;6.80;0.70;;;4.80;99.90;;;;;;5057850;28;20701;-85
2022/04/03 07:05:17;;;;;;;0.40;0.40;;;5.60;99.90;;;;;;5061904;28;20220;-85
2022/04/03 07:07:43;;;;;;;5.90;0.60;;;6.90;99.90;;;;;;5064303;28;20687;-84
2022/04/03 07:10:10;;;;;;;0.50;0.50;;;8.80;99.90;;;;;;5063542;28;20193;-82
2022/04/03 07:12:37;;;;;;;0.40;0.40;;;10.60;99.90;;;;;;5046033;28;20615;-87
2022/04/03 07:15:04;;;;;;;0.40;0.40;;;10.40;99.90;;;;;;5045736;28;20217;-88
2022/04/03 07:17:30;;;;;;;0.30;0.30;;;10.00;99.90;;;;;;5045728;28;20266;-85
2022/04/03 07:19:55;;;;;;;0.23;0.23;;;10.40;99.90;;;;;;5059761;28;20220;-85
2022/04/03 07:22:21;;;;;;;0.40;0.40;;;10.70;99.90;;;;;;5077720;28;20282;-84
2022/04/03 07:24:47;;;;;;;0.30;0.30;;;10.50;99.90;;;;;;5045651;28;20189;-86
2022/04/03 07:27:12;;;;;;;0.30;0.30;;;10.50;99.90;;;;;;5031664;28;20278;-86
2022/04/03 07:29:39;;;;;;;0.20;0.20;;;10.70;99.90;;;;;;5060310;28;20255;-84
2022/04/03 07:32:05;;;;;;;0.40;0.40;;;11.10;99.90;;;;;;5059641;28;20283;-84
2022/04/03 07:34:31;;;;;;;0.20;0.20;;;11.20;99.90;;;;;;5056932;28;20910;-83
2022/04/03 07:36:57;;;;;;;0.20;0.20;;;11.30;99.90;;;;;;5062444;28;20625;-84
2022/04/03 07:39:24;;;;;;;0.30;0.30;;;11.10;99.90;;;;;;5058654;28;20220;-84
2022/04/03 07:41:50;;;;;;;0.47;0.40;;;11.50;99.90;;;;;;5042995;28;20333;-84
2022/04/03 07:44:16;;;;;;;0.20;0.20;;;11.70;99.90;;;;;;5076542;28;20233;-83
2022/04/03 07:46:42;;;;;;;0.37;0.37;;;11.90;99.90;;;;;;5059537;28;20221;-83
2022/04/03 07:49:08;;;;;;;2.30;0.60;;;12.20;99.90;;;;;;5062405;28;20691;-83
2022/04/03 07:51:34;;;;;;;0.20;0.20;;;12.50;99.90;;;;;;5060164;28;20224;-83
2022/04/03 07:54:00;;;;;;;0.37;0.37;;;12.30;99.90;;;;;;5060258;28;20217;-83
2022/04/03 07:56:25;;;;;;;0.37;0.37;;;12.20;99.90;;;;;;5043517;28;20576;-83
2022/04/03 07:58:51;;;;;;;1.53;0.87;;;11.80;99.90;;;;;;5041815;28;20274;-83
2022/04/03 08:01:17;;;;;;;0.33;0.33;;;11.10;99.90;;;;;;5061798;28;20300;-83
2022/04/03 08:03:43;;;;;;;0.43;0.43;;;10.30;99.90;;;;;;5019585;28;20338;-82
2022/04/03 08:06:09;;;;;;;0.30;0.30;;;9.80;99.90;;;;;;5060269;28;20217;-82
2022/04/03 08:08:35;;;;;;;0.37;0.37;;;9.80;99.90;;;;;;5057397;28;20218;-82
2022/04/03 08:11:01;;;;;;;0.17;0.17;;;10.30;99.90;;;;;;5059447;28;20232;-83
2022/04/03 08:13:27;;;;;;;1.70;0.30;;;10.40;99.90;;;;;;5061900;28;20212;-83
2022/04/03 08:15:52;;;;;;;0.43;0.43;;;10.20;99.90;;;;;;5042176;28;20185;-83
2022/04/03 08:18:19;;;;;;;0.43;0.43;;;10.60;99.90;;;;;;5042924;28;21118;-83
2022/04/03 08:20:45;;;;;;;0.30;0.23;;;11.80;99.90;;;;;;5059981;28;20228;-83
2022/04/03 08:23:11;;;;;;;0.27;0.27;;;12.40;99.90;;;;;;5060868;28;20233;-82
2022/04/03 08:25:39;;;;;;;0.20;0.20;;;12.00;99.90;;;;;;5042279;28;20227;-82
2022/04/03 08:28:07;;;;;;;0.30;0.30;;;11.40;99.90;;;;;;5042883;28;20181;-83
2022/04/03 08:30:37;;;;;;;0.63;0.40;;;11.30;99.90;;;;;;5041663;28;20681;-83
2022/04/03 08:33:05;;;;;;;0.47;0.20;;;12.10;99.90;;;;;;5074376;28;20282;-82
2022/04/03 08:35:32;;;;;;;0.40;0.20;;;12.00;99.90;;;;;;5041521;28;20228;-83
2022/04/03 08:37:59;;;;;;;0.50;0.50;;;12.50;99.90;;;;;;5058999;28;20407;-83
2022/04/03 08:40:26;;;;;;;0.47;0.47;;;12.70;99.90;;;;;;5058161;28;20192;-83
2022/04/03 08:42:54;;;;;;;1.90;0.33;;;13.20;99.90;;;;;;5042455;28;20209;-83
2022/04/03 08:45:21;;;;;;;4.47;0.50;;;12.90;99.90;;;;;;5040031;28;21092;-83
2022/04/03 08:47:55;;;;;;;0.40;0.40;;;12.30;99.90;;;;;;5059757;28;20201;-83
2022/04/03 08:50:26;;;;;;;0.30;0.30;;;12.70;99.90;;;;;;5041911;28;20209;-84
2022/04/03 08:52:53;;;;;;;0.30;0.30;;;12.10;99.90;;;;;;5042684;28;20675;-83
2022/04/03 08:55:21;;;;;;;0.43;0.43;;;13.10;99.90;;;;;;5041149;28;20483;-83
2022/04/03 08:57:47;;;;;;;5.30;0.83;;;11.80;99.90;;;;;;5060062;28;20300;-83
2022/04/03 09:00:15;;;;;;;1.83;0.50;;;12.30;99.90;;;;;;5058797;28;20237;-83
2022/04/03 09:02:41;;;;;;;0.20;0.20;;;12.30;99.90;;;;;;5038263;28;20236;-83
2022/04/03 09:05:09;;;;;;;0.47;0.40;;;12.10;99.90;;;;;;5041570;28;20251;-83
2022/04/03 09:07:35;;;;;;;6.30;0.47;;;12.50;99.90;;;;;;5072769;28;20189;-83
2022/04/03 09:10:17;;;;;;;1.63;0.70;;;11.90;99.90;;;;;;5057744;28;20284;-84
2022/04/03 09:12:42;;;;;;;1.97;0.63;;;12.60;99.90;;;;;;5041282;28;20697;-83
2022/04/03 09:15:15;;;;;;;0.33;0.33;;;12.70;99.90;;;;;;5058472;28;20227;-84
2022/04/03 09:17:52;;;;;;;0.40;0.40;;;13.10;99.90;;;;;;5041800;28;20311;-84
2022/04/03 09:20:26;;;;;;;2.30;0.60;;;12.90;99.90;;;;;;5057722;28;20357;-84
2022/04/03 09:22:54;;;;;;;1.30;0.60;;;12.20;99.90;;;;;;5041882;28;20237;-84
2022/04/03 09:25:25;;;;;;;0.50;0.50;;;12.30;99.90;;;;;;5072300;28;20351;-83
2022/04/03 09:28:00;;;;;;;0.87;0.57;;;12.10;99.90;;;;;;5059205;28;20284;-83
2022/04/03 09:30:37;;;;;;;0.87;0.60;;;11.90;99.90;;;;;;5058621;28;20227;-84
2022/04/03 09:33:07;;;;;;;1.80;0.93;;;12.50;99.90;;;;;;5040247;28;20239;-85
2022/04/03 09:35:55;;;;;;;0.50;0.40;;;11.50;99.90;;;;;;5058235;28;20603;-84
2022/04/03 09:38:21;;;;;;;0.40;0.40;;;11.40;99.90;;;;;;5039416;28;20350;-84
2022/04/03 09:40:49;;;;;;;0.20;0.20;;;12.10;99.90;;;;;;5041384;28;20251;-84
2022/04/03 09:43:19;;;;;;;0.20;0.20;;;12.00;99.90;;;;;;5040905;28;20189;-84
2022/04/03 09:45:59;;;;;;;0.37;0.37;;;11.30;99.90;;;;;;5058538;28;20311;-83
2022/04/03 09:48:29;;;;;;;1.13;0.63;;;10.80;99.90;;;;;;5055449;28;20221;-83
2022/04/03 09:51:09;;;;;;;0.30;0.30;;;10.00;99.90;;;;;;5039964;28;20343;-83
2022/04/03 09:54:01;;;;;;;0.10;0.10;;;10.90;99.90;;;;;;5056792;28;20216;-84
2022/04/03 09:56:31;;;;;;;0.20;0.20;;;10.10;99.90;;;;;;5040006;28;20315;-84
2022/04/03 09:59:07;;;;;;;2.33;0.70;;;9.20;99.90;;;;;;5058835;28;20221;-83
2022/04/03 10:01:35;;;;;;;0.20;0.20;;;9.00;99.90;;;;;;5073224;28;21806;-84
2022/04/03 10:04:03;;;;;;;0.20;0.20;;;8.70;99.90;;;;;;5058682;28;20461;-83
2022/04/03 10:06:30;;;;;;;2.10;0.30;;;9.20;99.90;;;;;;5038362;28;20225;-84
2022/04/03 10:08:57;;;;;;;0.30;0.30;;;10.30;99.90;;;;;;5055176;28;20221;-86
2022/04/03 10:11:23;;;;;;;0.10;0.10;;;10.40;99.90;;;;;;5074419;28;20236;-85
2022/04/03 10:13:49;;;;;;;0.30;0.30;;;9.90;99.90;;;;;;5039275;28;20213;-84
2022/04/03 10:16:17;;;;;;;0.40;0.40;;;10.60;99.90;;;;;;5040145;28;20227;-84
2022/04/03 10:18:44;;;;;;;0.43;0.30;;;11.30;99.90;;;;;;5040649;28;20228;-84
2022/04/03 10:21:22;;;;;;;1.57;0.73;;;10.20;99.90;;;;;;5056806;28;20239;-83
2022/04/03 10:23:52;;;;;;;0.20;0.20;;;10.70;99.90;;;;;;5057074;28;20247;-82
2022/04/03 10:26:19;;;;;;;0.17;0.17;;;11.00;99.90;;;;;;5055095;28;20217;-84
2022/04/03 10:28:53;;;;;;;2.17;0.30;;;10.90;99.90;;;;;;5039902;28;20220;-83
2022/04/03 10:31:19;;;;;;;0.40;0.40;;;11.50;99.90;;;;;;5039202;28;20212;-83
2022/04/03 10:33:49;;;;;;;0.33;0.20;;;11.10;99.90;;;;;;5039921;28;20537;-83
2022/04/03 10:36:22;;;;;;;0.40;0.40;;;10.60;99.90;;;;;;5039731;28;20232;-83
2022/04/03 10:39:02;;;;;;;0.30;0.30;;;10.90;99.90;;;;;;5071150;28;20229;-82
2022/04/03 10:41:40;;;;;;;0.20;0.20;;;10.60;99.90;;;;;;5073694;28;20258;-82
2022/04/03 10:44:15;;;;;;;0.73;0.33;;;10.00;99.90;;;;;;5038707;28;20580;-83
2022/04/03 10:47:02;;;;;;;0.30;0.30;;;10.30;99.90;;;;;;5039812;28;20303;-84
2022/04/03 10:49:32;;;;;;;0.30;0.30;;;10.20;99.90;;;;;;5057189;28;20584;-84
2022/04/03 10:52:06;;;;;;;0.43;0.43;;;9.20;99.90;;;;;;5058585;28;20190;-83
2022/04/03 10:54:43;;;;;;;0.20;0.20;;;9.10;99.90;;;;;;5038853;28;20764;-83
2022/04/03 10:57:46;;;;;;;0.53;0.53;;;9.30;99.90;;;;;;5054865;28;20217;-83
2022/04/03 11:00:12;;;;;;;0.20;0.20;;;10.10;99.90;;;;;;5051843;28;20260;-82
2022/04/03 11:02:42;;;;;;;0.20;0.20;;;10.10;99.90;;;;;;5036220;28;20238;-83
2022/04/03 11:05:31;;;;;;;0.30;0.30;;;9.80;99.90;;;;;;5037335;28;20240;-83
2022/04/03 11:08:00;;;;;;;1.70;0.57;;;8.60;99.90;;;;;;5034493;28;20225;-82
2022/04/03 11:10:45;;;;;;;0.40;0.40;;;8.40;99.90;;;;;;5036283;28;20396;-83
2022/04/03 11:13:13;;;;;;;0.63;0.63;;;8.30;99.90;;;;;;5038891;28;20206;-83
2022/04/03 11:15:56;;;;;;;0.50;0.50;;;8.20;99.90;;;;;;5035851;28;20221;-82
2022/04/03 11:18:28;;;;;;;0.27;0.27;;;8.00;99.90;;;;;;5018558;28;20269;-83
2022/04/03 11:21:10;;;;;;;0.10;0.10;;;8.80;99.90;;;;;;5038091;28;20237;-85
2022/04/03 11:23:45;;;;;;;0.20;0.20;;;9.10;99.90;;;;;;5037246;28;20344;-83
2022/04/03 11:26:11;;;;;;;0.43;0.43;;;8.40;99.90;;;;;;5036668;28;20206;-83
2022/04/03 11:28:37;;;;;;;1.30;0.50;;;9.10;99.90;;;;;;5018486;28;20200;-84
2022/04/03 11:31:05;;;;;;;0.30;0.30;;;9.70;99.90;;;;;;5020958;28;20190;-84
2022/04/03 11:33:32;;;;;;;0.20;0.20;;;9.40;99.90;;;;;;5035495;28;20260;-84
2022/04/03 11:36:16;;;;;;;0.40;0.40;;;9.10;99.90;;;;;;5036046;28;20228;-83
2022/04/03 11:38:46;;;;;;;0.20;0.20;;;9.40;99.90;;;;;;5036305;28;20712;-84
2022/04/03 11:41:16;;;;;;;0.20;0.20;;;10.20;99.90;;;;;;5034732;28;20234;-83
2022/04/03 11:43:54;;;;;;;0.20;0.20;;;9.90;99.90;;;;;;5037556;28;20234;-84
2022/04/03 11:46:22;;;;;;;0.30;0.30;;;10.20;99.90;;;;;;5020238;28;20524;-83
2022/04/03 11:48:47;;;;;;;0.50;0.50;;;9.90;99.90;;;;;;5036855;28;20186;-83
2022/04/03 11:51:16;;;;;;;0.20;0.20;;;9.80;99.90;;;;;;5022907;28;20843;-83
2022/04/03 11:53:44;;;;;;;0.20;0.20;;;9.20;99.90;;;;;;5055177;28;20228;-82
2022/04/03 11:56:14;;;;;;;0.23;0.23;;;8.50;99.90;;;;;;5056188;28;21188;-80
2022/04/03 11:58:45;;;;;;;0.30;0.30;;;8.60;99.90;;;;;;5039882;28;20226;-82
2022/04/03 12:01:11;;;;;;;0.23;0.20;;;8.50;99.90;;;;;;5043216;28;20751;-80
2022/04/03 12:03:38;;;;;;;0.20;0.20;;;9.00;99.90;;;;;;5059285;28;20285;-81
2022/04/03 12:06:18;;;;;;;0.40;0.40;;;9.00;99.90;;;;;;5075428;28;20233;-81
2022/04/03 12:08:46;;;;;;;0.10;0.10;;;9.20;99.90;;;;;;5039015;28;20874;-82
2022/04/03 12:11:29;;;;;;;0.30;0.30;;;8.70;99.90;;;;;;5078470;28;20252;-80
2022/04/03 12:14:00;;;;;;;0.20;0.20;;;8.70;99.90;;;;;;5044175;28;20323;-83
2022/04/03 12:16:31;;;;;;;0.20;0.20;;;8.50;99.90;;;;;;5044011;28;20204;-84
2022/04/03 12:18:59;;;;;;;3.70;0.20;;;8.60;99.90;;;;;;5044926;28;20177;-84
2022/04/03 12:21:46;;;;;;;0.47;0.47;;;8.50;99.90;;;;;;5077163;28;20373;-83
2022/04/03 12:24:16;;;;;;;0.30;0.30;;;9.00;99.90;;;;;;5076225;28;20232;-82
2022/04/03 12:26:58;;;;;;;0.40;0.40;;;8.90;99.90;;;;;;5043661;28;20644;-82
2022/04/03 12:29:26;;;;;;;0.43;0.40;;;8.70;99.90;;;;;;5043252;28;20213;-82
2022/04/03 12:32:05;;;;;;;0.20;0.20;;;9.00;99.90;;;;;;5062139;28;20235;-84
2022/04/03 12:34:34;;;;;;;0.40;0.40;;;8.70;99.90;;;;;;5044038;28;20195;-84
2022/04/03 12:37:02;;;;;;;0.30;0.30;;;8.30;99.90;;;;;;5077559;28;20186;-82
2022/04/03 12:39:27;;;;;;;0.20;0.20;;;8.00;99.90;;;;;;5061557;28;20266;-83
2022/04/03 12:41:53;;;;;;;0.30;0.20;;;7.90;99.90;;;;;;5062003;28;20233;-83
2022/04/03 12:44:19;;;;;;;0.10;0.10;;;7.80;99.90;;;;;;5042902;28;20619;-82
2022/04/03 12:46:48;;;;;;;0.20;0.20;;;8.20;99.90;;;;;;5061978;28;20689;-83
2022/04/03 12:49:18;;;;;;;0.30;0.30;;;7.80;99.90;;;;;;5062415;28;20280;-82
2022/04/03 12:51:49;;;;;;;2.10;0.30;;;7.90;99.90;;;;;;5043322;28;20259;-83
2022/04/03 12:54:15;;;;;;;0.30;0.30;;;8.50;99.90;;;;;;5043861;28;20684;-83
2022/04/03 12:59:39;;;;;;;0.30;0.30;;;9.10;99.90;;;;;;5061183;28;20237;-83
2022/04/03 13:02:06;;;;;;;1.10;0.43;;;9.10;99.90;;;;;;5061245;28;20296;-83